sensor_id;sensor_type;location;lat;lon;timestamp;pressure;altitude;pressure_sealevel;temperature;humidity
8294;BME280;4185;41.506;24.938;2023-10-09T00:02:07;93915.53;;;12.79;85.48
8294;BME280;4185;41.506;24.938;2023-10-09T00:04:35;93922.75;;;12.88;85.79
8294;BME280;4185;41.506;24.938;2023-10-09T00:07:06;93918.78;;;12.89;85.59
8294;BME280;4185;41.506;24.938;2023-10-09T00:09:34;93921.25;;;12.87;84.91
8294;BME280;4185;41.506;24.938;2023-10-09T00:12:13;93919.25;;;12.82;85.57
8294;BME280;4185;41.506;24.938;2023-10-09T00:14:42;93911.09;;;12.82;85.74
8294;BME280;4185;41.506;24.938;2023-10-09T00:17:15;93910.84;;;12.85;85.25
8294;BME280;4185;41.506;24.938;2023-10-09T00:19:45;93908.38;;;12.93;84.95
8294;BME280;4185;41.506;24.938;2023-10-09T00:22:14;93906.41;;;12.93;84.82
8294;BME280;4185;41.506;24.938;2023-10-09T00:24:52;93905.41;;;12.85;85.24
8294;BME280;4185;41.506;24.938;2023-10-09T00:27:37;93894.44;;;12.74;85.86
8294;BME280;4185;41.506;24.938;2023-10-09T00:30:08;93909.53;;;12.70;86.57
8294;BME280;4185;41.506;24.938;2023-10-09T00:32:38;93909.03;;;12.71;86.10
8294;BME280;4185;41.506;24.938;2023-10-09T00:35:11;93894.44;;;12.74;86.61
8294;BME280;4185;41.506;24.938;2023-10-09T00:37:54;93911.06;;;12.76;86.75
8294;BME280;4185;41.506;24.938;2023-10-09T00:40:30;93909.31;;;12.79;86.62
8294;BME280;4185;41.506;24.938;2023-10-09T00:42:59;93901.84;;;12.74;86.12
8294;BME280;4185;41.506;24.938;2023-10-09T00:45:31;93912.50;;;12.66;86.67
8294;BME280;4185;41.506;24.938;2023-10-09T00:48:00;93911.00;;;12.65;86.99
8294;BME280;4185;41.506;24.938;2023-10-09T00:50:30;93904.34;;;12.72;86.31
8294;BME280;4185;41.506;24.938;2023-10-09T00:53:01;93910.06;;;12.79;86.70
8294;BME280;4185;41.506;24.938;2023-10-09T00:55:32;93911.81;;;12.77;86.08
8294;BME280;4185;41.506;24.938;2023-10-09T00:58:11;93897.91;;;12.75;86.33
8294;BME280;4185;41.506;24.938;2023-10-09T01:00:39;93912.00;;;12.68;86.63
8294;BME280;4185;41.506;24.938;2023-10-09T01:03:15;93915.00;;;12.70;86.57
8294;BME280;4185;41.506;24.938;2023-10-09T01:05:47;93905.06;;;12.72;86.60
8294;BME280;4185;41.506;24.938;2023-10-09T01:08:22;93906.59;;;12.79;85.99
8294;BME280;4185;41.506;24.938;2023-10-09T01:10:56;93916.72;;;12.73;86.58
8294;BME280;4185;41.506;24.938;2023-10-09T01:13:24;93915.25;;;12.72;86.40
8294;BME280;4185;41.506;24.938;2023-10-09T01:16:05;93917.00;;;12.75;86.16
8294;BME280;4185;41.506;24.938;2023-10-09T01:18:34;93930.16;;;12.82;86.16
8294;BME280;4185;41.506;24.938;2023-10-09T01:21:06;93938.31;;;12.76;86.79
8294;BME280;4185;41.506;24.938;2023-10-09T01:23:34;93938.75;;;12.69;87.14
8294;BME280;4185;41.506;24.938;2023-10-09T01:26:08;93931.31;;;12.64;86.93
8294;BME280;4185;41.506;24.938;2023-10-09T01:28:35;93925.56;;;12.57;87.12
8294;BME280;4185;41.506;24.938;2023-10-09T01:31:02;93933.94;;;12.48;87.78
8294;BME280;4185;41.506;24.938;2023-10-09T01:33:29;93924.75;;;12.40;88.17
8294;BME280;4185;41.506;24.938;2023-10-09T01:35:56;93928.69;;;12.39;88.79
8294;BME280;4185;41.506;24.938;2023-10-09T01:38:25;93923.69;;;12.32;89.45
8294;BME280;4185;41.506;24.938;2023-10-09T01:41:10;93928.63;;;12.33;88.95
8294;BME280;4185;41.506;24.938;2023-10-09T01:43:41;93937.09;;;12.35;89.71
8294;BME280;4185;41.506;24.938;2023-10-09T01:46:10;93940.81;;;12.38;89.46
8294;BME280;4185;41.506;24.938;2023-10-09T01:48:37;93937.09;;;12.35;89.25
8294;BME280;4185;41.506;24.938;2023-10-09T01:51:05;93947.94;;;12.29;89.97
8294;BME280;4185;41.506;24.938;2023-10-09T01:53:34;93953.13;;;12.27;90.64
8294;BME280;4185;41.506;24.938;2023-10-09T01:56:11;93947.50;;;12.37;89.96
8294;BME280;4185;41.506;24.938;2023-10-09T01:58:42;93950.75;;;12.41;90.46
8294;BME280;4185;41.506;24.938;2023-10-09T02:01:13;93949.75;;;12.44;89.61
8294;BME280;4185;41.506;24.938;2023-10-09T02:03:41;93952.22;;;12.42;90.28
8294;BME280;4185;41.506;24.938;2023-10-09T02:06:09;93958.38;;;12.37;90.15
8294;BME280;4185;41.506;24.938;2023-10-09T02:08:53;93949.25;;;12.40;90.65
8294;BME280;4185;41.506;24.938;2023-10-09T02:11:22;93968.84;;;12.44;90.42
8294;BME280;4185;41.506;24.938;2023-10-09T02:14:06;93963.59;;;12.40;90.67
8294;BME280;4185;41.506;24.938;2023-10-09T02:16:45;93952.25;;;12.47;90.25
8294;BME280;4185;41.506;24.938;2023-10-09T02:19:28;93958.97;;;12.52;90.96
8294;BME280;4185;41.506;24.938;2023-10-09T02:21:59;93960.22;;;12.51;90.76
8294;BME280;4185;41.506;24.938;2023-10-09T02:24:26;93968.91;;;12.55;90.39
8294;BME280;4185;41.506;24.938;2023-10-09T02:27:10;93967.91;;;12.52;91.08
8294;BME280;4185;41.506;24.938;2023-10-09T02:29:37;93968.13;;;12.49;91.22
8294;BME280;4185;41.506;24.938;2023-10-09T02:32:04;93973.28;;;12.41;92.19
8294;BME280;4185;41.506;24.938;2023-10-09T02:34:42;93981.69;;;12.43;92.74
8294;BME280;4185;41.506;24.938;2023-10-09T02:37:12;93984.19;;;12.41;92.90
8294;BME280;4185;41.506;24.938;2023-10-09T02:39:39;93983.44;;;12.41;93.44
8294;BME280;4185;41.506;24.938;2023-10-09T02:42:14;93988.88;;;12.41;93.40
8294;BME280;4185;41.506;24.938;2023-10-09T02:44:49;93979.03;;;12.49;93.10
8294;BME280;4185;41.506;24.938;2023-10-09T02:47:17;93980.78;;;12.52;92.51
8294;BME280;4185;41.506;24.938;2023-10-09T02:49:47;93976.31;;;12.49;92.57
8294;BME280;4185;41.506;24.938;2023-10-09T02:52:15;93977.28;;;12.46;92.80
8294;BME280;4185;41.506;24.938;2023-10-09T02:54:44;93979.03;;;12.49;93.37
8294;BME280;4185;41.506;24.938;2023-10-09T02:57:14;93980.00;;;12.46;93.22
8294;BME280;4185;41.506;24.938;2023-10-09T02:59:49;93987.47;;;12.51;93.38
8294;BME280;4185;41.506;24.938;2023-10-09T03:02:17;93987.69;;;12.47;93.71
8294;BME280;4185;41.506;24.938;2023-10-09T03:04:44;93989.66;;;12.47;92.99
8294;BME280;4185;41.506;24.938;2023-10-09T03:07:11;93989.66;;;12.47;93.01
8294;BME280;4185;41.506;24.938;2023-10-09T03:09:39;93979.72;;;12.44;93.44
8294;BME280;4185;41.506;24.938;2023-10-09T03:12:06;93979.47;;;12.42;92.89
8294;BME280;4185;41.506;24.938;2023-10-09T03:14:37;93989.41;;;12.45;92.66
8294;BME280;4185;41.506;24.938;2023-10-09T03:17:05;93986.66;;;12.39;93.78
8294;BME280;4185;41.506;24.938;2023-10-09T03:19:36;93985.88;;;12.39;92.95
8294;BME280;4185;41.506;24.938;2023-10-09T03:22:04;93987.63;;;12.36;93.84
8294;BME280;4185;41.506;24.938;2023-10-09T03:24:34;93993.06;;;12.36;93.52
8294;BME280;4185;41.506;24.938;2023-10-09T03:27:02;93998.75;;;12.33;94.72
8294;BME280;4185;41.506;24.938;2023-10-09T03:29:28;93994.50;;;12.32;93.90
8294;BME280;4185;41.506;24.938;2023-10-09T03:31:57;94001.69;;;12.35;93.67
8294;BME280;4185;41.506;24.938;2023-10-09T03:34:25;93998.53;;;12.36;93.49
8294;BME280;4185;41.506;24.938;2023-10-09T03:36:53;94003.69;;;12.34;94.38
8294;BME280;4185;41.506;24.938;2023-10-09T03:39:29;94003.00;;;12.39;94.04
8294;BME280;4185;41.506;24.938;2023-10-09T03:42:06;94007.25;;;12.46;94.56
8294;BME280;4185;41.506;24.938;2023-10-09T03:44:37;94011.22;;;12.45;94.25
8294;BME280;4185;41.506;24.938;2023-10-09T03:47:08;94023.50;;;12.35;94.19
8294;BME280;4185;41.506;24.938;2023-10-09T03:49:37;94029.66;;;12.29;94.40
8294;BME280;4185;41.506;24.938;2023-10-09T03:52:05;94019.28;;;12.34;94.99
8294;BME280;4185;41.506;24.938;2023-10-09T03:54:34;94032.91;;;12.34;94.94
8294;BME280;4185;41.506;24.938;2023-10-09T03:57:01;94029.91;;;12.32;94.66
8294;BME280;4185;41.506;24.938;2023-10-09T03:59:28;94025.97;;;12.33;94.69
8294;BME280;4185;41.506;24.938;2023-10-09T04:01:58;94019.78;;;12.32;96.00
8294;BME280;4185;41.506;24.938;2023-10-09T04:04:27;94008.88;;;12.32;95.90
8294;BME280;4185;41.506;24.938;2023-10-09T04:06:55;94017.59;;;12.42;95.24
8294;BME280;4185;41.506;24.938;2023-10-09T04:09:21;94022.81;;;12.40;95.42
8294;BME280;4185;41.506;24.938;2023-10-09T04:12:01;94029.47;;;12.39;94.98
8294;BME280;4185;41.506;24.938;2023-10-09T04:14:48;94023.28;;;12.38;95.42
8294;BME280;4185;41.506;24.938;2023-10-09T04:17:20;94025.97;;;12.33;95.88
8294;BME280;4185;41.506;24.938;2023-10-09T04:20:01;94021.03;;;12.37;96.02
8294;BME280;4185;41.506;24.938;2023-10-09T04:22:41;94022.00;;;12.34;97.07
8294;BME280;4185;41.506;24.938;2023-10-09T04:25:16;94035.41;;;12.37;96.85
8294;BME280;4185;41.506;24.938;2023-10-09T04:27:51;94044.38;;;12.43;96.04
8294;BME280;4185;41.506;24.938;2023-10-09T04:30:26;94043.91;;;12.45;95.93
8294;BME280;4185;41.506;24.938;2023-10-09T04:32:53;94045.34;;;12.40;96.56
8294;BME280;4185;41.506;24.938;2023-10-09T04:35:30;94060.69;;;12.38;95.91
8294;BME280;4185;41.506;24.938;2023-10-09T04:37:58;94061.19;;;12.42;96.34
8294;BME280;4185;41.506;24.938;2023-10-09T04:40:30;94069.63;;;12.44;96.43
8294;BME280;4185;41.506;24.938;2023-10-09T04:43:17;94062.72;;;12.43;96.74
8294;BME280;4185;41.506;24.938;2023-10-09T04:45:47;94056.03;;;12.44;97.11
8294;BME280;4185;41.506;24.938;2023-10-09T04:48:32;94056.78;;;12.44;96.96
8294;BME280;4185;41.506;24.938;2023-10-09T04:51:05;94050.88;;;12.51;96.78
8294;BME280;4185;41.506;24.938;2023-10-09T04:53:59;94055.41;;;12.60;96.76
8294;BME280;4185;41.506;24.938;2023-10-09T04:56:38;94056.91;;;12.61;96.28
8294;BME280;4185;41.506;24.938;2023-10-09T04:59:17;94062.34;;;12.61;96.71
8294;BME280;4185;41.506;24.938;2023-10-09T05:01:45;94066.03;;;12.58;96.57
8294;BME280;4185;41.506;24.938;2023-10-09T05:04:23;94063.75;;;12.51;97.04
8294;BME280;4185;41.506;24.938;2023-10-09T05:07:11;94074.16;;;12.52;97.45
8294;BME280;4185;41.506;24.938;2023-10-09T05:09:52;94073.47;;;12.57;97.28
8294;BME280;4185;41.506;24.938;2023-10-09T05:12:34;94073.03;;;12.64;96.61
8294;BME280;4185;41.506;24.938;2023-10-09T05:15:07;94079.22;;;12.65;96.78
8294;BME280;4185;41.506;24.938;2023-10-09T05:17:34;94080.06;;;12.76;95.67
8294;BME280;4185;41.506;24.938;2023-10-09T05:20:04;94083.06;;;12.84;94.85
8294;BME280;4185;41.506;24.938;2023-10-09T05:23:01;94099.78;;;12.97;94.60
8294;BME280;4185;41.506;24.938;2023-10-09T05:25:49;94096.63;;;13.04;94.36
8294;BME280;4185;41.506;24.938;2023-10-09T05:28:24;94101.88;;;13.13;93.88
8294;BME280;4185;41.506;24.938;2023-10-09T05:30:51;94107.88;;;13.17;93.48
8294;BME280;4185;41.506;24.938;2023-10-09T05:33:28;94110.91;;;13.30;92.94
8294;BME280;4185;41.506;24.938;2023-10-09T05:35:54;94101.28;;;13.40;93.06
8294;BME280;4185;41.506;24.938;2023-10-09T05:38:44;94109.69;;;13.36;93.02
8294;BME280;4185;41.506;24.938;2023-10-09T05:41:24;94124.06;;;13.31;92.97
8294;BME280;4185;41.506;24.938;2023-10-09T05:44:08;94117.63;;;13.34;93.13
8294;BME280;4185;41.506;24.938;2023-10-09T05:46:52;94126.56;;;13.35;93.05
8294;BME280;4185;41.506;24.938;2023-10-09T05:49:48;94121.69;;;13.50;92.45
8294;BME280;4185;41.506;24.938;2023-10-09T05:52:45;94136.41;;;13.69;92.48
8294;BME280;4185;41.506;24.938;2023-10-09T05:55:34;94134.25;;;13.84;91.87
8294;BME280;4185;41.506;24.938;2023-10-09T05:58:29;94142.22;;;13.99;91.56
8294;BME280;4185;41.506;24.938;2023-10-09T06:01:13;94144.78;;;14.13;91.05
8294;BME280;4185;41.506;24.938;2023-10-09T06:03:57;94152.50;;;14.20;90.36
8294;BME280;4185;41.506;24.938;2023-10-09T06:06:40;94146.56;;;14.27;89.59
8294;BME280;4185;41.506;24.938;2023-10-09T06:09:11;94150.31;;;14.30;89.08
8294;BME280;4185;41.506;24.938;2023-10-09T06:12:12;94143.59;;;14.36;89.04
8294;BME280;4185;41.506;24.938;2023-10-09T06:14:56;94142.13;;;14.41;89.19
8294;BME280;4185;41.506;24.938;2023-10-09T06:17:44;94155.53;;;14.44;88.30
8294;BME280;4185;41.506;24.938;2023-10-09T06:20:15;94150.84;;;14.50;88.19
8294;BME280;4185;41.506;24.938;2023-10-09T06:22:59;94162.53;;;14.62;87.69
8294;BME280;4185;41.506;24.938;2023-10-09T06:25:29;94166.78;;;14.68;85.93
8294;BME280;4185;41.506;24.938;2023-10-09T06:27:59;94167.03;;;14.82;86.16
8294;BME280;4185;41.506;24.938;2023-10-09T06:30:27;94168.53;;;14.88;85.16
8294;BME280;4185;41.506;24.938;2023-10-09T06:32:54;94168.53;;;14.94;84.46
8294;BME280;4185;41.506;24.938;2023-10-09T06:35:45;94179.47;;;14.94;83.74
8294;BME280;4185;41.506;24.938;2023-10-09T06:38:19;94182.22;;;14.99;82.80
8294;BME280;4185;41.506;24.938;2023-10-09T06:40:49;94196.38;;;15.09;82.22
8294;BME280;4185;41.506;24.938;2023-10-09T06:43:44;94194.16;;;15.13;81.13
8294;BME280;4185;41.506;24.938;2023-10-09T06:46:16;94188.69;;;15.18;81.38
8294;BME280;4185;41.506;24.938;2023-10-09T06:49:00;94198.63;;;15.27;80.96
8294;BME280;4185;41.506;24.938;2023-10-09T06:51:47;94202.09;;;15.38;79.88
8294;BME280;4185;41.506;24.938;2023-10-09T06:54:12;94200.63;;;15.43;79.53
8294;BME280;4185;41.506;24.938;2023-10-09T06:56:42;94209.81;;;15.51;78.90
8294;BME280;4185;41.506;24.938;2023-10-09T06:59:27;94212.81;;;15.58;77.90
8294;BME280;4185;41.506;24.938;2023-10-09T07:02:07;94215.78;;;15.66;77.70
8294;BME280;4185;41.506;24.938;2023-10-09T07:04:51;94212.28;;;15.71;77.95
8294;BME280;4185;41.506;24.938;2023-10-09T07:07:21;94213.53;;;15.70;77.37
8294;BME280;4185;41.506;24.938;2023-10-09T07:09:51;94215.25;;;15.73;76.56
8294;BME280;4185;41.506;24.938;2023-10-09T07:12:35;94216.00;;;15.73;76.57
8294;BME280;4185;41.506;24.938;2023-10-09T07:15:09;94211.78;;;15.67;76.52
8294;BME280;4185;41.506;24.938;2023-10-09T07:18:05;94222.50;;;15.70;76.32
8294;BME280;4185;41.506;24.938;2023-10-09T07:20:45;94227.97;;;15.76;75.35
8294;BME280;4185;41.506;24.938;2023-10-09T07:23:25;94231.94;;;15.80;74.27
8294;BME280;4185;41.506;24.938;2023-10-09T07:26:01;94231.19;;;15.91;74.25
8294;BME280;4185;41.506;24.938;2023-10-09T07:28:43;94236.34;;;16.06;73.27
8294;BME280;4185;41.506;24.938;2023-10-09T07:31:19;94231.59;;;16.17;72.50
8294;BME280;4185;41.506;24.938;2023-10-09T07:34:04;94246.28;;;16.20;70.88
8294;BME280;4185;41.506;24.938;2023-10-09T07:36:53;94241.06;;;16.16;71.57
8294;BME280;4185;41.506;24.938;2023-10-09T07:39:22;94241.31;;;16.18;70.74
8294;BME280;4185;41.506;24.938;2023-10-09T07:41:49;94249.03;;;16.25;70.96
8294;BME280;4185;41.506;24.938;2023-10-09T07:44:27;94255.47;;;16.22;70.00
8294;BME280;4185;41.506;24.938;2023-10-09T07:47:05;94246.50;;;16.27;69.71
8294;BME280;4185;41.506;24.938;2023-10-09T07:49:44;94247.50;;;16.30;70.13
8294;BME280;4185;41.506;24.938;2023-10-09T07:52:18;94239.03;;;16.22;69.67
8294;BME280;4185;41.506;24.938;2023-10-09T07:54:48;94250.53;;;16.15;69.79
8294;BME280;4185;41.506;24.938;2023-10-09T07:57:20;94255.03;;;16.13;69.51
8294;BME280;4185;41.506;24.938;2023-10-09T07:59:51;94251.03;;;16.14;69.36
8294;BME280;4185;41.506;24.938;2023-10-09T08:02:28;94265.47;;;16.14;69.46
8294;BME280;4185;41.506;24.938;2023-10-09T08:04:59;94261.28;;;16.08;68.50
8294;BME280;4185;41.506;24.938;2023-10-09T08:07:40;94261.53;;;16.10;68.75
8294;BME280;4185;41.506;24.938;2023-10-09T08:10:20;94275.47;;;16.06;68.06
8294;BME280;4185;41.506;24.938;2023-10-09T08:13:04;94262.78;;;16.03;67.38
8294;BME280;4185;41.506;24.938;2023-10-09T08:15:44;94259.50;;;16.10;67.60
8294;BME280;4185;41.506;24.938;2023-10-09T08:18:19;94270.97;;;16.20;66.97
8294;BME280;4185;41.506;24.938;2023-10-09T08:20:53;94267.72;;;16.21;66.42
8294;BME280;4185;41.506;24.938;2023-10-09T08:23:34;94265.00;;;16.10;66.25
8294;BME280;4185;41.506;24.938;2023-10-09T08:26:14;94268.50;;;16.05;66.13
8294;BME280;4185;41.506;24.938;2023-10-09T08:28:54;94265.53;;;16.03;66.46
8294;BME280;4185;41.506;24.938;2023-10-09T08:31:40;94268.50;;;16.05;65.91
8294;BME280;4185;41.506;24.938;2023-10-09T08:34:13;94267.00;;;16.04;65.47
8294;BME280;4185;41.506;24.938;2023-10-09T08:36:50;94266.25;;;16.09;64.92
8294;BME280;4185;41.506;24.938;2023-10-09T08:39:20;94268.91;;;16.31;65.11
8294;BME280;4185;41.506;24.938;2023-10-09T08:41:58;94273.84;;;16.55;63.95
8294;BME280;4185;41.506;24.938;2023-10-09T08:44:27;94276.31;;;16.58;63.38
8294;BME280;4185;41.506;24.938;2023-10-09T08:46:57;94277.34;;;16.50;62.83
8294;BME280;4185;41.506;24.938;2023-10-09T08:49:25;94266.91;;;16.37;63.09
8294;BME280;4185;41.506;24.938;2023-10-09T08:51:52;94275.88;;;16.32;62.54
8294;BME280;4185;41.506;24.938;2023-10-09T08:54:20;94276.44;;;16.25;63.02
8294;BME280;4185;41.506;24.938;2023-10-09T08:56:47;94271.41;;;16.29;62.36
8294;BME280;4185;41.506;24.938;2023-10-09T08:59:18;94270.19;;;16.25;62.44
8294;BME280;4185;41.506;24.938;2023-10-09T09:01:46;94273.19;;;16.27;61.78
8294;BME280;4185;41.506;24.938;2023-10-09T09:04:37;94266.69;;;16.30;62.07
8294;BME280;4185;41.506;24.938;2023-10-09T09:07:05;94262.69;;;16.36;62.03
8294;BME280;4185;41.506;24.938;2023-10-09T09:09:32;94266.84;;;16.59;61.53
8294;BME280;4185;41.506;24.938;2023-10-09T09:11:59;94268.09;;;16.64;61.21
8294;BME280;4185;41.506;24.938;2023-10-09T09:14:35;94268.81;;;16.64;60.29
8294;BME280;4185;41.506;24.938;2023-10-09T09:17:02;94270.78;;;16.69;60.38
8294;BME280;4185;41.506;24.938;2023-10-09T09:19:31;94274.75;;;16.74;60.08
8294;BME280;4185;41.506;24.938;2023-10-09T09:22:00;94271.25;;;16.73;60.00
8294;BME280;4185;41.506;24.938;2023-10-09T09:24:37;94269.78;;;16.72;60.26
8294;BME280;4185;41.506;24.938;2023-10-09T09:27:05;94274.72;;;16.79;59.48
8294;BME280;4185;41.506;24.938;2023-10-09T09:29:44;94285.47;;;16.77;60.23
8294;BME280;4185;41.506;24.938;2023-10-09T09:32:26;94271.25;;;16.73;60.02
8294;BME280;4185;41.506;24.938;2023-10-09T09:34:55;94275.97;;;16.78;59.93
8294;BME280;4185;41.506;24.938;2023-10-09T09:37:28;94268.00;;;16.80;59.56
8294;BME280;4185;41.506;24.938;2023-10-09T09:39:57;94280.50;;;16.76;59.63
8294;BME280;4185;41.506;24.938;2023-10-09T09:42:27;94277.78;;;16.70;58.89
8294;BME280;4185;41.506;24.938;2023-10-09T09:44:58;94281.53;;;16.67;59.24
8294;BME280;4185;41.506;24.938;2023-10-09T09:47:27;94272.03;;;16.68;59.48
8294;BME280;4185;41.506;24.938;2023-10-09T09:49:55;94270.56;;;16.67;59.63
8294;BME280;4185;41.506;24.938;2023-10-09T09:52:30;94264.06;;;16.70;59.40
8294;BME280;4185;41.506;24.938;2023-10-09T09:55:05;94251.03;;;16.76;58.73
8294;BME280;4185;41.506;24.938;2023-10-09T09:57:40;94255.75;;;16.81;58.92
8294;BME280;4185;41.506;24.938;2023-10-09T10:00:12;94253.25;;;16.83;58.50
8294;BME280;4185;41.506;24.938;2023-10-09T10:02:56;94251.28;;;16.78;58.66
8294;BME280;4185;41.506;24.938;2023-10-09T10:05:26;94252.31;;;16.75;58.18
8294;BME280;4185;41.506;24.938;2023-10-09T10:07:57;94247.09;;;16.72;58.39
8294;BME280;4185;41.506;24.938;2023-10-09T10:10:35;94248.81;;;16.69;57.68
8294;BME280;4185;41.506;24.938;2023-10-09T10:13:05;94245.31;;;16.74;58.16
8294;BME280;4185;41.506;24.938;2023-10-09T10:16:04;94251.56;;;16.69;57.81
8294;BME280;4185;41.506;24.938;2023-10-09T10:18:55;94251.09;;;16.65;57.67
8294;BME280;4185;41.506;24.938;2023-10-09T10:21:32;94252.34;;;16.64;58.28
8294;BME280;4185;41.506;24.938;2023-10-09T10:24:01;94234.91;;;16.67;57.81
8294;BME280;4185;41.506;24.938;2023-10-09T10:26:33;94235.84;;;16.75;57.83
8294;BME280;4185;41.506;24.938;2023-10-09T10:29:16;94230.34;;;16.75;56.49
8294;BME280;4185;41.506;24.938;2023-10-09T10:31:53;94238.25;;;16.84;56.57
8294;BME280;4185;41.506;24.938;2023-10-09T10:34:21;94234.25;;;16.91;56.64
8294;BME280;4185;41.506;24.938;2023-10-09T10:36:49;94224.19;;;17.04;55.62
8294;BME280;4185;41.506;24.938;2023-10-09T10:39:19;94230.22;;;16.97;55.44
8294;BME280;4185;41.506;24.938;2023-10-09T10:42:01;94224.53;;;16.90;55.78
8294;BME280;4185;41.506;24.938;2023-10-09T10:44:32;94239.53;;;16.83;55.87
8294;BME280;4185;41.506;24.938;2023-10-09T10:47:08;94234.56;;;16.82;56.45
8294;BME280;4185;41.506;24.938;2023-10-09T10:49:48;94229.41;;;16.67;56.06
8294;BME280;4185;41.506;24.938;2023-10-09T10:52:25;94225.19;;;16.61;56.28
8294;BME280;4185;41.506;24.938;2023-10-09T10:55:19;94212.47;;;16.63;56.11
8294;BME280;4185;41.506;24.938;2023-10-09T10:58:16;94214.44;;;16.68;56.04
8294;BME280;4185;41.506;24.938;2023-10-09T11:00:52;94206.91;;;16.74;55.85
8294;BME280;4185;41.506;24.938;2023-10-09T11:03:36;94215.38;;;16.76;55.97
8294;BME280;4185;41.506;24.938;2023-10-09T11:06:25;94209.38;;;16.78;56.09
8294;BME280;4185;41.506;24.938;2023-10-09T11:09:01;94200.34;;;16.88;55.76
8294;BME280;4185;41.506;24.938;2023-10-09T11:11:36;94189.13;;;17.22;55.36
8294;BME280;4185;41.506;24.938;2023-10-09T11:14:12;94182.44;;;17.47;54.34
8294;BME280;4185;41.506;24.938;2023-10-09T11:16:40;94186.91;;;17.50;53.74
8294;BME280;4185;41.506;24.938;2023-10-09T11:19:18;94178.50;;;17.66;53.23
8294;BME280;4185;41.506;24.938;2023-10-09T11:22:06;94177.25;;;18.10;52.76
8294;BME280;4185;41.506;24.938;2023-10-09T11:24:51;94169.84;;;18.23;52.38
8294;BME280;4185;41.506;24.938;2023-10-09T11:27:40;94165.94;;;17.95;52.46
8294;BME280;4185;41.506;24.938;2023-10-09T11:30:15;94149.00;;;17.91;52.20
8294;BME280;4185;41.506;24.938;2023-10-09T11:33:04;94152.94;;;18.75;50.76
8294;BME280;4185;41.506;24.938;2023-10-09T11:35:31;94148.38;;;19.28;49.11
8294;BME280;4185;41.506;24.938;2023-10-09T11:38:00;94143.09;;;19.11;49.09
8294;BME280;4185;41.506;24.938;2023-10-09T11:40:28;94160.50;;;18.69;49.32
8294;BME280;4185;41.506;24.938;2023-10-09T11:43:01;94155.59;;;18.62;49.84
8294;BME280;4185;41.506;24.938;2023-10-09T11:45:29;94137.44;;;18.35;50.80
8294;BME280;4185;41.506;24.938;2023-10-09T11:48:16;94146.50;;;18.11;50.96
8294;BME280;4185;41.506;24.938;2023-10-09T11:50:47;94141.72;;;17.93;52.36
8294;BME280;4185;41.506;24.938;2023-10-09T11:53:22;94138.31;;;17.87;52.30
8294;BME280;4185;41.506;24.938;2023-10-09T11:56:00;94141.69;;;17.75;52.82
8294;BME280;4185;41.506;24.938;2023-10-09T11:58:29;94146.78;;;17.65;52.02
8294;BME280;4185;41.506;24.938;2023-10-09T12:00:58;94149.41;;;17.52;52.79
8294;BME280;4185;41.506;24.938;2023-10-09T12:03:29;94150.47;;;17.44;53.76
8294;BME280;4185;41.506;24.938;2023-10-09T12:05:56;94142.22;;;17.44;53.07
8294;BME280;4185;41.506;24.938;2023-10-09T12:08:24;94130.56;;;17.38;53.19
8294;BME280;4185;41.506;24.938;2023-10-09T12:10:53;94127.00;;;17.43;53.37
8294;BME280;4185;41.506;24.938;2023-10-09T12:13:22;94120.25;;;17.44;53.92
8294;BME280;4185;41.506;24.938;2023-10-09T12:15:51;94125.44;;;17.53;53.57
8294;BME280;4185;41.506;24.938;2023-10-09T12:18:20;94117.91;;;17.59;53.27
8294;BME280;4185;41.506;24.938;2023-10-09T12:20:47;94110.09;;;17.63;53.21
8294;BME280;4185;41.506;24.938;2023-10-09T12:23:18;94102.97;;;17.73;52.73
8294;BME280;4185;41.506;24.938;2023-10-09T12:25:45;94116.28;;;17.69;53.05
8294;BME280;4185;41.506;24.938;2023-10-09T12:28:12;94119.84;;;17.64;52.98
8294;BME280;4185;41.506;24.938;2023-10-09T12:30:39;94117.66;;;17.57;53.48
8294;BME280;4185;41.506;24.938;2023-10-09T12:33:08;94108.94;;;17.53;53.60
8294;BME280;4185;41.506;24.938;2023-10-09T12:35:39;94109.66;;;17.59;53.62
8294;BME280;4185;41.506;24.938;2023-10-09T12:38:07;94101.50;;;17.72;53.42
8294;BME280;4185;41.506;24.938;2023-10-09T12:40:38;94095.50;;;17.73;53.03
8294;BME280;4185;41.506;24.938;2023-10-09T12:43:07;94095.44;;;17.55;53.09
8294;BME280;4185;41.506;24.938;2023-10-09T12:45:41;94096.56;;;17.41;53.39
8294;BME280;4185;41.506;24.938;2023-10-09T12:48:09;94093.81;;;17.41;53.79
8294;BME280;4185;41.506;24.938;2023-10-09T12:50:36;94092.69;;;17.31;53.83
8294;BME280;4185;41.506;24.938;2023-10-09T12:53:08;94089.03;;;17.23;54.40
8294;BME280;4185;41.506;24.938;2023-10-09T12:55:36;94085.06;;;17.18;53.85
8294;BME280;4185;41.506;24.938;2023-10-09T12:58:06;94087.16;;;17.06;54.53
8294;BME280;4185;41.506;24.938;2023-10-09T13:00:34;94098.25;;;16.95;54.65
8294;BME280;4185;41.506;24.938;2023-10-09T13:03:05;94110.78;;;16.91;54.96
8294;BME280;4185;41.506;24.938;2023-10-09T13:05:44;94109.53;;;16.86;55.74
8294;BME280;4185;41.506;24.938;2023-10-09T13:08:18;94100.50;;;16.91;55.35
8294;BME280;4185;41.506;24.938;2023-10-09T13:10:47;94103.97;;;16.97;55.85
8294;BME280;4185;41.506;24.938;2023-10-09T13:13:20;94105.94;;;17.02;55.55
8294;BME280;4185;41.506;24.938;2023-10-09T13:15:47;94093.44;;;17.01;55.58
8294;BME280;4185;41.506;24.938;2023-10-09T13:18:14;94099.97;;;16.98;55.21
8294;BME280;4185;41.506;24.938;2023-10-09T13:20:41;94095.50;;;16.95;55.19
8294;BME280;4185;41.506;24.938;2023-10-09T13:23:11;94090.78;;;16.96;55.54
8294;BME280;4185;41.506;24.938;2023-10-09T13:25:41;94086.47;;;17.00;55.64
8294;BME280;4185;41.506;24.938;2023-10-09T13:28:10;94088.19;;;17.03;56.00
8294;BME280;4185;41.506;24.938;2023-10-09T13:30:38;94075.38;;;17.12;55.82
8294;BME280;4185;41.506;24.938;2023-10-09T13:33:15;94074.66;;;17.11;55.28
8294;BME280;4185;41.506;24.938;2023-10-09T13:35:47;94072.44;;;17.10;55.00
8294;BME280;4185;41.506;24.938;2023-10-09T13:38:17;94076.97;;;17.01;54.97
8294;BME280;4185;41.506;24.938;2023-10-09T13:40:44;94081.09;;;16.89;54.97
8294;BME280;4185;41.506;24.938;2023-10-09T13:43:11;94077.66;;;16.83;55.49
8294;BME280;4185;41.506;24.938;2023-10-09T13:45:42;94070.44;;;16.80;55.49
8294;BME280;4185;41.506;24.938;2023-10-09T13:48:15;94065.75;;;16.75;55.67